createdAt,value
2014-07-12T00:00:46.924Z,70.61
2014-07-12T00:01:51.598Z,71.26
2014-07-12T00:02:56.289Z,71.21
2014-07-12T00:04:00.979Z,71.51
2014-07-12T00:05:05.950Z,70.78
2014-07-12T00:06:10.936Z,70.91
2014-07-12T00:07:15.641Z,71.02
2014-07-12T00:08:20.316Z,70.81
2014-07-12T00:09:25.005Z,70.89
2014-07-12T00:10:29.694Z,71.27
2014-07-12T00:11:34.665Z,71.41
2014-07-12T00:12:39.354Z,71.24
2014-07-12T00:13:43.357Z,70.92
2014-07-12T00:14:48.047Z,70.95
2014-07-12T00:15:53.017Z,71.11
2014-07-12T00:16:57.707Z,70.66
2014-07-12T00:18:02.694Z,70.44
2014-07-12T00:19:07.680Z,71.43
2014-07-12T00:20:12.963Z,71.81
2014-07-12T00:21:17.637Z,72.35
2014-07-12T00:22:22.623Z,71.61
2014-07-12T00:23:27.610Z,72.05
2014-07-12T00:24:32.299Z,72.31
2014-07-12T00:25:36.989Z,72.37
2014-07-12T00:26:41.678Z,71.75
2014-07-12T00:27:46.368Z,71.71
2014-07-12T00:28:51.355Z,71.21
2014-07-12T00:29:56.325Z,71.7
2014-07-12T00:31:01.014Z,71.63
2014-07-12T00:32:06.001Z,71.55
2014-07-12T00:33:10.690Z,71.44
2014-07-12T00:34:15.677Z,71.27
2014-07-12T00:35:20.352Z,71.78
2014-07-12T00:36:25.040Z,71.95
2014-07-12T00:37:29.730Z,71.23
2014-07-12T00:38:34.431Z,71.2
2014-07-12T00:39:39.163Z,71.76
2014-07-12T00:40:43.891Z,71.58
2014-07-12T00:41:48.608Z,71.95
2014-07-12T00:42:53.655Z,71.83
2014-07-12T00:43:58.359Z,71.1
2014-07-12T00:45:03.048Z,71.21
2014-07-12T00:46:07.752Z,70.51
2014-07-12T00:47:12.456Z,71.18
2014-07-12T00:48:17.135Z,70.95
2014-07-12T00:49:21.829Z,71.62
2014-07-12T00:50:26.525Z,71.5
2014-07-12T00:51:31.501Z,72.02
2014-07-12T00:52:36.194Z,71.79
2014-07-12T00:53:40.887Z,71.46
2014-07-12T00:54:45.874Z,71.62
2014-07-12T00:55:50.566Z,71.86
2014-07-12T00:56:55.257Z,71.45
2014-07-12T00:58:00.245Z,71.73
2014-07-12T00:59:05.232Z,71.99
2014-07-12T01:00:10.219Z,72.17
2014-07-12T01:01:14.910Z,71.87
2014-07-12T01:02:20.194Z,71.15
2014-07-12T01:03:25.180Z,70.79
2014-07-12T01:04:29.885Z,71.19
2014-07-12T01:05:34.576Z,71.69
2014-07-12T01:06:39.249Z,72.09
2014-07-12T01:07:43.235Z,72.34
2014-07-12T01:08:47.925Z,72.05
2014-07-12T01:09:52.599Z,72.18
2014-07-12T01:10:57.289Z,72
2014-07-12T01:12:01.979Z,71.73
2014-07-12T01:13:06.669Z,71.75
2014-07-12T01:14:11.343Z,71.9
2014-07-12T01:15:16.329Z,72.02
2014-07-12T01:16:21.019Z,71.94
2014-07-12T01:17:25.708Z,71.91
2014-07-12T01:18:30.382Z,71.88
2014-07-12T01:19:35.369Z,72.29
2014-07-12T01:20:40.356Z,71.88
2014-07-12T01:21:45.045Z,72.08
2014-07-12T01:22:49.719Z,71.82
2014-07-12T01:23:54.409Z,71.49
2014-07-12T01:24:59.082Z,72.07
2014-07-12T01:26:03.771Z,72.29
2014-07-12T01:27:08.758Z,72.51
2014-07-12T01:28:13.447Z,72.2
2014-07-12T01:29:18.138Z,72.33
2014-07-12T01:30:23.421Z,72.89
2014-07-12T01:31:28.110Z,72.93
2014-07-12T01:32:32.784Z,72.44
2014-07-12T01:33:37.770Z,72.29
2014-07-12T01:34:42.756Z,72.15
2014-07-12T01:35:47.445Z,72.02
2014-07-12T01:36:52.432Z,72.8
2014-07-12T01:37:57.403Z,72.89
2014-07-12T01:39:02.093Z,73.04
2014-07-12T01:40:06.782Z,73.11
2014-07-12T01:41:11.769Z,73.05
2014-07-12T01:42:16.443Z,72.95
2014-07-12T01:43:21.132Z,73.29
2014-07-12T01:44:26.119Z,73.36
2014-07-12T01:45:30.793Z,73.31
2014-07-12T01:46:35.781Z,73.08
2014-07-12T01:47:40.470Z,73.12
2014-07-12T01:48:45.441Z,73.83
2014-07-12T01:49:50.130Z,73.95
2014-07-12T01:50:54.820Z,74.1
2014-07-12T01:51:59.494Z,74.7
2014-07-12T01:53:04.184Z,74.49
2014-07-12T01:54:08.873Z,74.13
2014-07-12T01:55:13.547Z,73.99
2014-07-12T01:56:18.236Z,73.76
2014-07-12T01:57:22.926Z,73.85
2014-07-12T01:58:27.911Z,73.87
2014-07-12T01:59:32.586Z,74.02
2014-07-12T02:00:37.275Z,73.98
2014-07-12T02:01:41.965Z,74.02
2014-07-12T02:02:46.935Z,73.67
2014-07-12T02:03:51.624Z,73.05
2014-07-12T02:04:56.315Z,72.37
2014-07-12T02:06:01.003Z,72.36
2014-07-12T02:07:05.005Z,72.86
2014-07-12T02:08:09.992Z,73.61
2014-07-12T02:09:14.682Z,73.39
2014-07-12T02:10:19.371Z,73.62
2014-07-12T02:11:24.061Z,73.46
2014-07-12T02:12:28.735Z,73.77
2014-07-12T02:13:33.424Z,74.02
2014-07-12T02:14:38.410Z,73.14
2014-07-12T02:15:43.397Z,74.06
2014-07-12T02:16:48.071Z,73.61
2014-07-12T02:17:52.760Z,72.97
2014-07-12T02:18:57.449Z,72.74
2014-07-12T02:20:02.423Z,72.72
2014-07-12T02:21:07.408Z,73.53
2014-07-12T02:22:12.099Z,73.47
2014-07-12T02:23:17.070Z,73.78
2014-07-12T02:24:21.759Z,74.79
2014-07-12T02:25:26.746Z,75.37
2014-07-12T02:26:31.435Z,74.94
2014-07-12T02:27:36.109Z,74.41
2014-07-12T02:28:40.797Z,75.06
2014-07-12T02:29:45.785Z,74.74
2014-07-12T02:30:50.459Z,74.59
2014-07-12T02:31:55.444Z,74.48
2014-07-12T02:33:00.135Z,74.79
2014-07-12T02:34:04.807Z,74.84
2014-07-12T02:35:10.091Z,75.48
2014-07-12T02:36:14.781Z,75.62
2014-07-12T02:37:19.471Z,75.41
2014-07-12T02:38:24.160Z,75.49
2014-07-12T02:39:28.834Z,75.42
2014-07-12T02:40:33.820Z,75.39
2014-07-12T02:41:38.510Z,75.38
2014-07-12T02:42:43.199Z,75.22
2014-07-12T02:43:48.484Z,75.33
2014-07-12T02:44:53.172Z,75.78
2014-07-12T02:45:57.863Z,76.31
2014-07-12T02:47:02.537Z,76.22
2014-07-12T02:48:07.226Z,75.81
2014-07-12T02:49:11.916Z,75.34
2014-07-12T02:50:16.588Z,75.19
2014-07-12T02:51:21.279Z,74.99
2014-07-12T02:52:25.968Z,74.73
2014-07-12T02:53:30.658Z,75.28
2014-07-12T02:54:35.332Z,75.23
2014-07-12T02:55:40.020Z,75.38
2014-07-12T02:56:45.007Z,75.52
2014-07-12T02:57:49.009Z,74.57
2014-07-12T02:58:53.980Z,74
2014-07-12T02:59:58.670Z,74.33
2014-07-12T03:01:03.359Z,74.82
2014-07-12T03:02:08.033Z,75.12
2014-07-12T03:03:12.725Z,75.37
2014-07-12T03:04:17.413Z,75.78
2014-07-12T03:05:22.088Z,75.74
2014-07-12T03:06:26.778Z,75.63
2014-07-12T03:07:31.451Z,75.28
2014-07-12T03:08:36.141Z,74.68
2014-07-12T03:09:40.831Z,74.31
2014-07-12T03:10:45.520Z,74.05
2014-07-12T03:11:50.194Z,73.72
2014-07-12T03:12:54.883Z,73.67
2014-07-12T03:13:59.572Z,73.94
2014-07-12T03:15:04.262Z,74.35
2014-07-12T03:16:08.952Z,73.75
2014-07-12T03:17:13.626Z,73.74
2014-07-12T03:18:18.315Z,73.86
2014-07-12T03:19:23.005Z,74.15
2014-07-12T03:20:27.694Z,73.64
2014-07-12T03:21:32.665Z,74.2
2014-07-12T03:22:37.355Z,73.27
2014-07-12T03:23:42.043Z,73.14
2014-07-12T03:24:46.734Z,73.23
2014-07-12T03:25:51.407Z,72.83
2014-07-12T03:26:56.098Z,72.81
2014-07-12T03:28:00.771Z,73.52
2014-07-12T03:29:05.460Z,74.2
2014-07-12T03:30:10.134Z,73.5
2014-07-12T03:31:14.824Z,73.18
2014-07-12T03:32:20.107Z,72.92
2014-07-12T03:33:24.781Z,73.18
2014-07-12T03:34:29.470Z,73.23
2014-07-12T03:35:34.457Z,73.29
2014-07-12T03:36:39.131Z,73.69
2014-07-12T03:37:43.820Z,73.34
2014-07-12T03:38:48.806Z,73.63
2014-07-12T03:39:53.480Z,74.19
2014-07-12T03:40:58.172Z,74.29
2014-07-12T03:42:02.861Z,74.8
2014-07-12T03:43:07.832Z,74.61
2014-07-12T03:44:12.818Z,74.57
2014-07-12T03:45:17.805Z,74.86
2014-07-12T03:46:22.494Z,74.11
2014-07-12T03:47:27.184Z,73.53
2014-07-12T03:48:31.859Z,73.57
2014-07-12T03:49:36.548Z,73.88
2014-07-12T03:50:41.237Z,73.5
2014-07-12T03:51:45.912Z,73.18
2014-07-12T03:52:49.914Z,73.5
2014-07-12T03:53:54.602Z,73.76
2014-07-12T03:54:59.574Z,73.51
2014-07-12T03:56:04.560Z,73.22
2014-07-12T03:57:09.265Z,73.61
2014-07-12T03:58:13.939Z,73.95
2014-07-12T03:59:18.629Z,74.08
2014-07-12T04:00:23.912Z,74.2
2014-07-12T04:01:28.586Z,74.82
2014-07-12T04:02:33.275Z,74.26
2014-07-12T04:03:38.262Z,73.85
2014-07-12T04:04:42.951Z,73.71
2014-07-12T04:05:47.641Z,73.03
2014-07-12T04:06:52.330Z,72.62
2014-07-12T04:07:57.021Z,73.24
2014-07-12T04:09:01.990Z,73.25
2014-07-12T04:10:06.680Z,73.78
2014-07-12T04:11:11.369Z,74.17
2014-07-12T04:12:16.059Z,74.59
2014-07-12T04:13:20.749Z,74.21
2014-07-12T04:14:25.438Z,73.99
2014-07-12T04:15:29.737Z,73.61
2014-07-12T04:16:34.723Z,73.54
2014-07-12T04:17:39.398Z,73.94
2014-07-12T04:18:44.087Z,73.99
2014-07-12T04:19:49.073Z,73.29
2014-07-12T04:20:54.060Z,73.23
2014-07-12T04:21:58.733Z,73.61
2014-07-12T04:23:03.721Z,73.45
2014-07-12T04:24:08.410Z,73.18
2014-07-12T04:25:13.380Z,72.99
2014-07-12T04:26:18.070Z,73.25
2014-07-12T04:27:22.760Z,73.06
2014-07-12T04:28:27.433Z,73.37
2014-07-12T04:29:32.420Z,73.26
2014-07-12T04:30:37.109Z,73.23
2014-07-12T04:31:42.095Z,73.43
2014-07-12T04:32:46.772Z,73.14
2014-07-12T04:33:51.757Z,73.34
2014-07-12T04:34:56.447Z,73.68
2014-07-12T04:36:01.122Z,73.58
2014-07-12T04:37:05.811Z,73.53
2014-07-12T04:38:10.500Z,73.27
2014-07-12T04:39:15.470Z,73.05
2014-07-12T04:40:20.176Z,73.34
2014-07-12T04:41:24.865Z,73.48
2014-07-12T04:42:29.554Z,73.49
2014-07-12T04:43:34.228Z,73.04
2014-07-12T04:44:39.215Z,72.81
2014-07-12T04:45:44.202Z,73.28
2014-07-12T04:46:48.892Z,73.38
2014-07-12T04:47:53.581Z,73.42
2014-07-12T04:48:58.271Z,73.32
2014-07-12T04:50:02.976Z,73.29
2014-07-12T04:51:07.665Z,73.13
2014-07-12T04:52:12.355Z,73.26
2014-07-12T04:53:17.045Z,73.29
2014-07-12T04:54:21.718Z,73.27
2014-07-12T04:55:26.409Z,73.53
2014-07-12T04:56:31.394Z,73.41
2014-07-12T04:57:36.069Z,73.43
2014-07-12T04:58:41.054Z,73.15
2014-07-12T04:59:45.744Z,73.02
2014-07-12T05:00:50.418Z,73.35
2014-07-12T05:01:55.107Z,73.68
2014-07-12T05:02:59.797Z,73.54
2014-07-12T05:04:04.783Z,73.5
2014-07-12T05:05:09.457Z,73.51
2014-07-12T05:06:14.146Z,73.77
2014-07-12T05:07:19.133Z,72.97
2014-07-12T05:08:24.103Z,72.98
2014-07-12T05:09:29.090Z,72.51
2014-07-12T05:10:34.077Z,72.89
2014-07-12T05:11:38.750Z,73.14
2014-07-12T05:12:43.455Z,73.46
2014-07-12T05:13:48.131Z,73.14
2014-07-12T05:14:52.821Z,72.84
2014-07-12T05:15:57.510Z,72.95
2014-07-12T05:17:02.184Z,73.16
2014-07-12T05:18:07.170Z,72.78
2014-07-12T05:19:11.861Z,72.29
2014-07-12T05:20:16.550Z,72.43
2014-07-12T05:21:21.223Z,72.49
2014-07-12T05:22:25.914Z,72.54
2014-07-12T05:23:30.900Z,72.06
2014-07-12T05:24:35.885Z,72.14
2014-07-12T05:25:40.575Z,72.52
2014-07-12T05:26:45.561Z,72.41
2014-07-12T05:27:50.252Z,72.59
2014-07-12T05:28:54.940Z,73.02
2014-07-12T05:29:59.615Z,73.38
2014-07-12T05:31:04.304Z,72.66
2014-07-12T05:32:09.290Z,72.63
2014-07-12T05:33:14.277Z,72.51
2014-07-12T05:34:19.545Z,72.46
2014-07-12T05:35:24.234Z,72.9
2014-07-12T05:36:29.518Z,73.1
2014-07-12T05:37:34.488Z,72.77
2014-07-12T05:38:39.178Z,72.78
2014-07-12T05:39:43.867Z,73.31
2014-07-12T05:40:48.854Z,73.45
2014-07-12T05:41:53.527Z,73.19
2014-07-12T05:42:58.514Z,73.17
2014-07-12T05:44:03.205Z,73.33
2014-07-12T05:45:07.895Z,72.93
2014-07-12T05:46:12.568Z,72.55
2014-07-12T05:47:17.554Z,72.39
2014-07-12T05:48:22.245Z,72.33
2014-07-12T05:49:26.933Z,72.06
2014-07-12T05:50:30.936Z,72.15
2014-07-12T05:51:35.625Z,71.96
2014-07-12T05:52:40.315Z,72.04
2014-07-12T05:53:44.988Z,72.18
2014-07-12T05:54:49.678Z,71.96
2014-07-12T05:55:54.664Z,72.05
2014-07-12T05:56:59.354Z,72.27
2014-07-12T05:58:04.029Z,72.54
2014-07-12T05:59:08.718Z,71.81
2014-07-12T06:00:13.703Z,71.47
2014-07-12T06:01:18.393Z,71.58
2014-07-12T06:02:23.380Z,71.94
2014-07-12T06:03:28.366Z,72.14
2014-07-12T06:04:33.055Z,72.31
2014-07-12T06:05:37.729Z,71.84
2014-07-12T06:06:42.716Z,71.35
2014-07-12T06:07:47.703Z,72.02
2014-07-12T06:08:52.392Z,71.98
2014-07-12T06:09:57.066Z,71.7
2014-07-12T06:11:01.755Z,71.37
2014-07-12T06:12:06.445Z,71.26
2014-07-12T06:13:11.432Z,71.48
2014-07-12T06:14:16.105Z,71.16
2014-07-12T06:15:20.795Z,71.1
2014-07-12T06:16:25.781Z,71.36
2014-07-12T06:17:30.455Z,71.03
2014-07-12T06:18:35.145Z,71.35
2014-07-12T06:19:40.131Z,71.66
2014-07-12T06:20:45.414Z,71.3
2014-07-12T06:21:50.105Z,71.39
2014-07-12T06:22:54.780Z,71.67
2014-07-12T06:23:59.469Z,71.61
2014-07-12T06:25:04.456Z,71.3
2014-07-12T06:26:09.129Z,71.81
2014-07-12T06:27:13.819Z,71.86
2014-07-12T06:28:18.805Z,71.62
2014-07-12T06:29:23.792Z,71.43
2014-07-12T06:30:28.481Z,71.93
2014-07-12T06:31:33.452Z,72.01
2014-07-12T06:32:38.735Z,71.54
2014-07-12T06:33:43.425Z,71.68
2014-07-12T06:34:48.114Z,71.6
2014-07-12T06:35:52.803Z,71.68
2014-07-12T06:36:57.493Z,71.98
2014-07-12T06:38:02.183Z,71.91
2014-07-12T06:39:06.872Z,71.87
2014-07-12T06:40:11.546Z,72.01
2014-07-12T06:41:16.251Z,71.77
2014-07-12T06:42:20.941Z,71.86
2014-07-12T06:43:25.927Z,72.02
2014-07-12T06:44:30.913Z,71.99
2014-07-12T06:45:35.603Z,71.35
2014-07-12T06:46:40.292Z,70.74
2014-07-12T06:47:44.966Z,70.81
2014-07-12T06:48:49.656Z,70.82
2014-07-12T06:49:54.345Z,71.1
2014-07-12T06:50:59.316Z,70.84
2014-07-12T06:52:04.303Z,70.9
2014-07-12T06:53:08.992Z,70.85
2014-07-12T06:54:13.682Z,71.49
2014-07-12T06:55:18.371Z,71.43
2014-07-12T06:56:23.358Z,71.13
2014-07-12T06:57:28.031Z,71.27
2014-07-12T06:58:32.034Z,71.4
2014-07-12T06:59:36.708Z,71.57
2014-07-12T07:00:41.695Z,71.57
2014-07-12T07:01:46.682Z,71.48
2014-07-12T07:02:51.653Z,71.43
2014-07-12T07:03:56.343Z,71.22
2014-07-12T07:05:01.032Z,71.72
2014-07-12T07:06:05.705Z,71.56
2014-07-12T07:07:10.693Z,71.25
2014-07-12T07:08:15.381Z,71.21
2014-07-12T07:09:20.369Z,71.13
2014-07-12T07:10:25.355Z,70.85
2014-07-12T07:11:30.326Z,70.69
2014-07-12T07:12:35.015Z,69.97
2014-07-12T07:13:40.002Z,69.72
2014-07-12T07:14:44.988Z,69.62
2014-07-12T07:15:49.678Z,69.23
2014-07-12T07:16:54.664Z,68.99
2014-07-12T07:17:59.650Z,68.8
2014-07-12T07:19:04.324Z,69.09
2014-07-12T07:20:09.311Z,69.21
2014-07-12T07:21:14.000Z,69.11
2014-07-12T07:22:18.690Z,69.95
2014-07-12T07:23:23.364Z,69.36
2014-07-12T07:24:28.053Z,68.8
2014-07-12T07:25:32.743Z,68.59
2014-07-12T07:26:37.433Z,68.92
2014-07-12T07:27:42.419Z,69.12
2014-07-12T07:28:47.093Z,69.18
2014-07-12T07:29:51.782Z,69.77
2014-07-12T07:30:56.472Z,70.35
2014-07-12T07:32:01.146Z,70.23
2014-07-12T07:33:05.836Z,70.31
2014-07-12T07:34:10.525Z,70.06
2014-07-12T07:35:15.511Z,69.79
2014-07-12T07:36:20.185Z,69.69
2014-07-12T07:37:24.875Z,70.08
2014-07-12T07:38:29.580Z,69.64
2014-07-12T07:39:34.551Z,69.69
2014-07-12T07:40:39.537Z,69.36
2014-07-12T07:41:44.227Z,69.82
2014-07-12T07:42:48.916Z,69.61
2014-07-12T07:43:53.606Z,69.31
2014-07-12T07:44:58.279Z,68.97
2014-07-12T07:46:02.969Z,68.75
2014-07-12T07:47:07.658Z,69.38
2014-07-12T07:48:12.645Z,69.86
2014-07-12T07:49:17.334Z,70.45
2014-07-12T07:50:22.321Z,70.16
2014-07-12T07:51:27.012Z,69.7
2014-07-12T07:52:31.983Z,69.04
2014-07-12T07:53:36.672Z,68.08
2014-07-12T07:54:41.362Z,67.58
2014-07-12T07:55:46.051Z,67.43
2014-07-12T07:56:50.741Z,66.78
2014-07-12T07:57:55.430Z,66.26
2014-07-12T07:58:59.432Z,66.8
2014-07-12T08:00:04.106Z,67.33
2014-07-12T08:01:08.796Z,66.88
2014-07-12T08:02:13.485Z,68.01
2014-07-12T08:03:18.175Z,66.47
2014-07-12T08:04:23.146Z,66.58
2014-07-12T08:05:27.836Z,67.47
2014-07-12T08:06:32.821Z,67.28
2014-07-12T08:07:37.511Z,66.95
2014-07-12T08:08:42.200Z,67.24
2014-07-12T08:09:47.187Z,66.92
2014-07-12T08:10:51.876Z,67.02
2014-07-12T08:11:56.566Z,67.02
2014-07-12T08:13:01.240Z,66.85
2014-07-12T08:14:05.930Z,66.89
2014-07-12T08:15:10.619Z,66.58
2014-07-12T08:16:15.308Z,66.98
2014-07-12T08:17:19.982Z,66.76
2014-07-12T08:18:24.968Z,66.93
2014-07-12T08:19:29.658Z,67.07
2014-07-12T08:20:34.941Z,68.36
2014-07-12T08:21:39.633Z,68.04
2014-07-12T08:22:44.322Z,67.13
2014-07-12T08:23:49.012Z,66.73
2014-07-12T08:24:53.701Z,66.68
2014-07-12T08:25:58.375Z,67.47
2014-07-12T08:27:02.377Z,67.12
2014-07-12T08:28:06.676Z,66.36
2014-07-12T08:29:11.662Z,66.64
2014-07-12T08:30:16.352Z,66.84
2014-07-12T08:31:21.041Z,66.76
2014-07-12T08:32:26.326Z,66.47
2014-07-12T08:33:31.295Z,68.01
2014-07-12T08:34:35.986Z,66.63
2014-07-12T08:35:40.674Z,65.75
2014-07-12T08:36:45.645Z,64.94
2014-07-12T08:37:50.335Z,66
2014-07-12T08:38:55.321Z,65.85
2014-07-12T08:40:00.011Z,65.07
2014-07-12T08:41:04.701Z,65.27
2014-07-12T08:42:09.375Z,64.08
2014-07-12T08:43:14.064Z,64.35
2014-07-12T08:44:19.051Z,64.08
2014-07-12T08:45:24.037Z,64.21
2014-07-12T08:46:28.727Z,64.17
2014-07-12T08:47:33.416Z,64.13
2014-07-12T08:48:38.090Z,63.89
2014-07-12T08:49:42.779Z,65.18
2014-07-12T08:50:47.766Z,65.06
2014-07-12T08:51:52.455Z,65.12
2014-07-12T08:52:57.145Z,64.78
2014-07-12T08:54:01.819Z,65.27
2014-07-12T08:55:06.508Z,65.42
2014-07-12T08:56:11.495Z,66.07
2014-07-12T08:57:16.184Z,65.76
2014-07-12T08:58:20.874Z,65.79
2014-07-12T08:59:25.860Z,65.7
2014-07-12T09:00:30.846Z,65.93
2014-07-12T09:01:34.833Z,65.94
2014-07-12T09:02:39.538Z,65.28
2014-07-12T09:03:44.821Z,64.95
2014-07-12T09:04:49.511Z,64.34
2014-07-12T09:05:54.200Z,64.17
2014-07-12T09:06:58.891Z,63.22
2014-07-12T09:08:02.894Z,63.18
2014-07-12T09:09:07.879Z,63.93
2014-07-12T09:10:12.554Z,63.42
2014-07-12T09:11:17.540Z,63.7
2014-07-12T09:12:22.230Z,62.64
2014-07-12T09:13:26.919Z,62.37
2014-07-12T09:14:31.609Z,61.73
2014-07-12T09:15:36.283Z,61.55
2014-07-12T09:16:40.972Z,60.91
2014-07-12T09:17:45.662Z,61.46
2014-07-12T09:18:50.351Z,62.89
2014-07-12T09:19:55.634Z,61.86
2014-07-12T09:21:00.324Z,62.18
2014-07-12T09:22:04.998Z,62.3
2014-07-12T09:23:09.984Z,61.85
2014-07-12T09:24:14.674Z,61.64
2014-07-12T09:25:19.363Z,61.38
2014-07-12T09:26:24.349Z,62
2014-07-12T09:27:28.648Z,61.42
2014-07-12T09:28:33.338Z,61.51
2014-07-12T09:29:38.324Z,61.02
2014-07-12T09:30:43.014Z,60.87
2014-07-12T09:31:48.000Z,60.8
2014-07-12T09:32:52.986Z,62.44
2014-07-12T09:33:57.973Z,62.01
2014-07-12T09:35:02.662Z,61.7
2014-07-12T09:36:07.649Z,61.22
2014-07-12T09:37:12.338Z,60.35
2014-07-12T09:38:17.029Z,59.89
2014-07-12T09:39:21.719Z,60.46
2014-07-12T09:40:26.424Z,60.5
2014-07-12T09:41:31.411Z,60.64
2014-07-12T09:42:36.100Z,61.31
2014-07-12T09:43:41.103Z,61.48
2014-07-12T09:44:45.832Z,61.34
2014-07-12T09:45:50.547Z,60.74
2014-07-12T09:46:55.573Z,61.13
2014-07-12T09:48:00.602Z,61.88
2014-07-12T09:49:04.630Z,61.78
2014-07-12T09:50:09.631Z,61.93
2014-07-12T09:51:14.335Z,62.12
2014-07-12T09:52:18.352Z,62.53
2014-07-12T09:53:23.059Z,63.03
2014-07-12T09:54:27.738Z,62.42
2014-07-12T09:55:32.731Z,62.28
2014-07-12T09:56:37.425Z,62.14
2014-07-12T09:57:42.714Z,61.77
2014-07-12T09:58:47.409Z,61.27
2014-07-12T09:59:52.100Z,60.86
2014-07-12T10:00:57.088Z,60.93
2014-07-12T10:02:02.077Z,60.46
2014-07-12T10:03:06.768Z,59.12
2014-07-12T10:04:11.740Z,59.52
2014-07-12T10:05:16.445Z,59.03
2014-07-12T10:06:21.121Z,58.49
2014-07-12T10:07:25.811Z,58.79
2014-07-12T10:08:30.500Z,58.46
2014-07-12T10:09:35.191Z,57.56
2014-07-12T10:10:39.883Z,58.59
2014-07-12T10:11:44.573Z,57.44
2014-07-12T10:12:49.559Z,57.72
2014-07-12T10:13:54.248Z,58.65
2014-07-12T10:14:58.938Z,59.42
2014-07-12T10:16:03.627Z,59.32
2014-07-12T10:17:08.615Z,59.38
2014-07-12T10:18:13.601Z,60.2
2014-07-12T10:19:18.290Z,61.21
2014-07-12T10:20:22.979Z,61.9
2014-07-12T10:21:27.966Z,62.17
2014-07-12T10:22:32.655Z,62.37
2014-07-12T10:23:37.641Z,62.82
2014-07-12T10:24:42.925Z,62.11
2014-07-12T10:25:47.599Z,62.52
2014-07-12T10:26:52.288Z,62.15
2014-07-12T10:27:56.978Z,61.36
2014-07-12T10:29:01.965Z,61.35
2014-07-12T10:30:06.654Z,61.18
2014-07-12T10:31:11.344Z,61.57
2014-07-12T10:32:16.329Z,61.25
2014-07-12T10:33:21.019Z,61.78
2014-07-12T10:34:25.694Z,62.11
2014-07-12T10:35:30.679Z,61.29
2014-07-12T10:36:35.369Z,61.42
2014-07-12T10:37:39.372Z,60.08
2014-07-12T10:38:44.357Z,60.03
2014-07-12T10:39:49.345Z,59.52
2014-07-12T10:40:54.035Z,58.45
2014-07-12T10:41:58.724Z,58.1
2014-07-12T10:43:03.414Z,58.52
2014-07-12T10:44:08.104Z,57.78
2014-07-12T10:45:12.793Z,57.73
2014-07-12T10:46:17.482Z,58.02
2014-07-12T10:47:22.173Z,57.25
2014-07-12T10:48:26.861Z,56.88
2014-07-12T10:49:31.551Z,56.72
2014-07-12T10:50:36.240Z,57.01
2014-07-12T10:51:40.930Z,56.68
2014-07-12T10:52:45.636Z,57.41
2014-07-12T10:53:50.324Z,56.43
2014-07-12T10:54:55.014Z,55.93
2014-07-12T10:55:59.688Z,56.75
2014-07-12T10:57:04.378Z,55.98
2014-07-12T10:58:09.067Z,55.66
2014-07-12T10:59:14.053Z,55.31
2014-07-12T11:00:18.743Z,55.45
2014-07-12T11:01:23.432Z,56.29
2014-07-12T11:02:28.107Z,56.2
2014-07-12T11:03:32.796Z,57.32
2014-07-12T11:04:38.079Z,57.36
2014-07-12T11:05:43.065Z,57.8
2014-07-12T11:06:47.757Z,56.74
2014-07-12T11:07:52.462Z,57.6
2014-07-12T11:08:56.464Z,58.38
2014-07-12T11:10:01.138Z,57.63
2014-07-12T11:11:05.843Z,57.66
2014-07-12T11:12:10.517Z,57.48
2014-07-12T11:13:15.222Z,57.56
2014-07-12T11:14:19.911Z,57.82
2014-07-12T11:15:24.898Z,57.35
2014-07-12T11:16:29.884Z,56.39
2014-07-12T11:17:34.574Z,56.86
2014-07-12T11:18:39.263Z,57.19
2014-07-12T11:19:44.249Z,57.69
2014-07-12T11:20:48.955Z,57.79
2014-07-12T11:21:53.941Z,57.53
2014-07-12T11:22:58.631Z,58.31
2014-07-12T11:24:03.320Z,58.06
2014-07-12T11:25:08.307Z,59.63
2014-07-12T11:26:12.997Z,60.3
2014-07-12T11:27:17.968Z,61.35
2014-07-12T11:28:22.969Z,61.83
2014-07-12T11:29:27.658Z,63.25
2014-07-12T11:30:32.629Z,62.56
2014-07-12T11:31:37.318Z,62.66
2014-07-12T11:32:42.305Z,64.41
2014-07-12T11:33:46.994Z,65.54
2014-07-12T11:34:51.981Z,66.81
2014-07-12T11:35:56.670Z,66.15
2014-07-12T11:37:01.657Z,66.64
2014-07-12T11:38:06.644Z,66.1
2014-07-12T11:39:11.332Z,65.44
2014-07-12T11:40:16.303Z,65.89
2014-07-12T11:41:20.994Z,67.05
2014-07-12T11:42:25.683Z,67.79
2014-07-12T11:43:30.375Z,68.22
2014-07-12T11:44:35.064Z,68.27
2014-07-12T11:45:39.753Z,67.53
2014-07-12T11:46:44.443Z,67.03
2014-07-12T11:47:49.726Z,68.05
2014-07-12T11:48:54.415Z,67.88
2014-07-12T11:49:59.401Z,66.97
2014-07-12T11:51:04.092Z,64.93
2014-07-12T11:52:08.780Z,66.59
2014-07-12T11:53:13.470Z,66.37
2014-07-12T11:54:17.473Z,66.48
2014-07-12T11:55:22.178Z,64.65
2014-07-12T11:56:26.866Z,64.38
2014-07-12T11:57:32.151Z,65.36
2014-07-12T11:58:37.153Z,64.66
2014-07-12T11:59:41.841Z,62.97
2014-07-12T12:00:46.515Z,63.25
2014-07-12T12:01:51.204Z,62.26
2014-07-12T12:02:55.894Z,61.84
2014-07-12T12:04:00.584Z,61.86
2014-07-12T12:05:05.570Z,62.64
2014-07-12T12:06:10.260Z,61.85
2014-07-12T12:07:15.247Z,62.37
2014-07-12T12:08:20.233Z,61.74
2014-07-12T12:09:25.219Z,61.6
2014-07-12T12:10:29.893Z,62.23
2014-07-12T12:11:34.583Z,62.05
2014-07-12T12:12:39.569Z,61.19
2014-07-12T12:13:44.259Z,60.34
2014-07-12T12:14:48.948Z,59.08
2014-07-12T12:15:52.950Z,59.48
2014-07-12T12:16:57.657Z,57.25
2014-07-12T12:18:02.347Z,57.47
2014-07-12T12:19:07.333Z,57.48
2014-07-12T12:20:12.023Z,56.32
2014-07-12T12:21:17.009Z,57.34
2014-07-12T12:22:22.308Z,57.73
2014-07-12T12:23:26.997Z,57.74
2014-07-12T12:24:31.687Z,58.27
2014-07-12T12:25:36.672Z,59.45
2014-07-12T12:26:41.363Z,59.41
2014-07-12T12:27:46.348Z,59.47
2014-07-12T12:28:51.336Z,60.36
2014-07-12T12:29:56.024Z,60.68
2014-07-12T12:31:00.715Z,60.06
2014-07-12T12:32:05.419Z,61.84
2014-07-12T12:33:10.406Z,61.2
2014-07-12T12:34:15.095Z,61.09
2014-07-12T12:35:19.769Z,60.71
2014-07-12T12:36:24.459Z,60.36
2014-07-12T12:37:29.742Z,60.95
2014-07-12T12:38:34.432Z,60.96
2014-07-12T12:39:39.715Z,61.55
2014-07-12T12:40:44.701Z,61.31
2014-07-12T12:41:49.688Z,60.87
2014-07-12T12:42:54.377Z,60.96
2014-07-12T12:43:59.067Z,60.67
2014-07-12T12:45:03.741Z,61.42
2014-07-12T12:46:09.026Z,61.57
2014-07-12T12:47:14.309Z,61.5
2014-07-12T12:48:19.295Z,61.17
2014-07-12T12:49:23.984Z,60.99
2014-07-12T12:50:28.674Z,60.96
2014-07-12T12:51:33.661Z,60.52
2014-07-12T12:52:38.647Z,60.46
2014-07-12T12:53:43.320Z,60.42
2014-07-12T12:54:48.011Z,60.71
2014-07-12T12:55:52.997Z,60.86
2014-07-12T12:56:57.686Z,60.63
2014-07-12T12:58:02.376Z,60.37
2014-07-12T12:59:07.362Z,60.11
2014-07-12T13:00:12.349Z,60.61
2014-07-12T13:01:17.038Z,61.04
2014-07-12T13:02:21.728Z,60.34
2014-07-12T13:03:26.417Z,60.73
2014-07-12T13:04:31.107Z,60.58
2014-07-12T13:05:35.406Z,60.83
2014-07-12T13:06:40.392Z,60.69
2014-07-12T13:07:45.394Z,60.75
2014-07-12T13:08:50.084Z,60.75
2014-07-12T13:09:54.773Z,60.37
2014-07-12T13:10:59.462Z,59.94
2014-07-12T13:12:04.434Z,60.38
2014-07-12T13:13:09.123Z,60.7
2014-07-12T13:14:13.813Z,59.91
2014-07-12T13:15:18.799Z,59.61
2014-07-12T13:16:23.786Z,59.05
2014-07-12T13:17:28.474Z,59.64
2014-07-12T13:18:33.150Z,59.29
2014-07-12T13:19:37.871Z,58.85
2014-07-12T13:20:42.561Z,58.56
2014-07-12T13:21:47.250Z,58.64
2014-07-12T13:22:52.236Z,58.82
2014-07-12T13:23:56.926Z,58.8
2014-07-12T13:25:01.615Z,58.69
2014-07-12T13:26:06.305Z,58.93
2014-07-12T13:27:11.291Z,58.14
2014-07-12T13:28:15.981Z,58.63
2014-07-12T13:29:21.264Z,58.7
2014-07-12T13:30:25.954Z,59.24
2014-07-12T13:31:30.643Z,58.86
2014-07-12T13:32:35.348Z,59.48
2014-07-12T13:33:40.022Z,59.51
2014-07-12T13:34:45.040Z,58.48
2014-07-12T13:35:49.745Z,58.18
2014-07-12T13:36:54.731Z,58.25
2014-07-12T13:37:59.452Z,58.37
2014-07-12T13:39:04.157Z,57.85
2014-07-12T13:40:08.847Z,58.26
2014-07-12T13:41:13.833Z,59.15
2014-07-12T13:42:19.116Z,59.39
2014-07-12T13:43:24.103Z,58.79
2014-07-12T13:44:28.792Z,58.76
2014-07-12T13:45:33.499Z,59.25
2014-07-12T13:46:38.189Z,59.25
2014-07-12T13:47:42.878Z,58.62
2014-07-12T13:48:47.583Z,58.88
2014-07-12T13:49:52.288Z,58.83
2014-07-12T13:50:56.978Z,59.74
2014-07-12T13:52:01.980Z,59.9
2014-07-12T13:53:06.967Z,59.5
2014-07-12T13:54:11.671Z,60.09
2014-07-12T13:55:16.378Z,59.86
2014-07-12T13:56:21.066Z,59.95